Pagrindinis puslapis
METAR-TAF:

METAR-TAF

Oro uostai :

Billund, Danija

platuma: 55-44N, ilguma: 009-10E, Aukštis: 75 m

Dabartinis oras

Ataskaita buvo paskelbta 16 minutes, ne 10:50 UTC
Vėjas 6 kt iš Rytų/Šiaurės Rytų
Temperatūra 1°C
Drėgmė 86%
Slėgis 1030 hPa
Matomumas 10 km arba daugiau

METAR: EKBI 271050Z AUTO 07006KT 9999 NCD 01/M01 Q1030

Laikas: 12:06 (11:06 UTC)

Prognozė

Ataskaita buvo paskelbta 5 valandos ir 57 minutes, ne 05:09 UTC
Prognozė galioja nuo 27 metu 06 UTC su 28 metu 06 UTC
Vėjas 5 kt iš Šiaurės
Matomumas 10 km arba daugiau
nėra debesų žemiau 1500 m ir nėra kamuolinių lietaus debesų
Tikimybė 40%
nuo 27 metu 22 UTC su 28 metu 04 UTC
Matomumas: 0500 m
ne aukštis 200 ft
įšaldymas rūko

TAF: EKBI 270509Z 2706/2806 36005KT CAVOK PROB40 2722/2804 0500 FZFG VV002

Orai ataskaitas ir orų prognozės (METAR, TAF).

turimą stotys yra geltonos ir raudonos taškus žemėlapyje.

Perkelti pele per norėdami pamatyti stoties vardą.

Tada spustelėkite, norėdami matyti oro stebėjimo ir prognozės.

Norėdami pakeisti žemėlapį: spustelėkite ant žalios mygtukų su juodo kryžiaus žemyn,; žalią mygtuką su brūkšneliu, jei norite nutolinti; arba žalių rodyklių gretimoms žemėlapius.


METAR-TAF: